1973 Severe Tropical Cyclone LEAH(REGENE (1973060S14132)


IBTrACS version v04r00. Visit IBTrACS website for data access.
Please direct all questions to the IBTrACS Q and A forum

Storm track - Intensity - Wind Radii - Intensity Data - Source Data - All data

Summary Information

Storm ID 1973060S14132
Start Mar 1 09Z
Max Intensity 70 kt (Mar 4 18Z), 973 mb (Mar 4 13Z)
End Mar 7 06Z
ATCF IDs
Track status Best track data.
Spur track This storm is a spur track associated with the main storm: 1973058S11138

Storm track plot

Map of storm track

Intensity plots

Map of storm track

Radial wind information

No radial wind information for this storm


Position and Intensity Table

BASIN ISO_TIME_________ NATURE LAT LON DS824 WIND DS824 PRES
degrees north degrees east kts mb
SI 1973-03-01 09:00:00 TS -13.87 132.28
SI 12:00:00 TS -13.81 131.04
SI 15:00:00 TS -13.76 129.73
SI 18:00:00 TS -13.72 128.38
SI 21:00:00 TS -13.70 127.05
SI 1973-03-02 00:00:00 TS -13.72 125.78
SI 03:00:00 TS -13.78 124.62
SI 06:00:00 TS -13.90 123.60 20 1004
SI 09:00:00 TS -14.13 122.78 20 1004
SI 12:00:00 TS -14.30 122.00 20 1004
SI 15:00:00 TS -14.29 121.24 20 1004
SI 18:00:00 TS -14.20 120.40 20 1004
SI 21:00:00 TS -14.07 119.42 25 1002
SI 1973-03-03 00:00:00 TS -14.00 118.20 30 1001
SI 01:00:00 TS -14.01 117.71 30 1000
SI 03:00:00 TS -14.09 116.63 30 1000
SI 04:00:00 TS -14.15 116.07 30 999
SI 06:00:00 TS -14.30 115.00 30 999
SI 07:00:00 TS -14.39 114.51 30 998
SI 09:00:00 TS -14.59 113.59 32 997
SI 10:00:00 TS -14.70 113.16 33 997
SI 12:00:00 TS -14.90 112.40 35 996
SI 13:00:00 TS -14.97 112.06 35 995
SI 15:00:00 TS -15.08 111.47 37 995
SI 16:00:00 TS -15.15 111.20 38 995
SI 18:00:00 TS -15.30 110.70 40 995
SI 19:00:00 TS -15.42 110.42 42 993
SI 21:00:00 TS -15.68 109.89 47 990
SI 22:00:00 TS -15.83 109.64 49 988
SI 1973-03-04 00:00:00 TS -16.10 109.20 55 985
SI 01:00:00 TS -16.21 109.01 56 983
SI 03:00:00 TS -16.41 108.67 60 980
SI 04:00:00 TS -16.50 108.54 61 978
SI 06:00:00 TS -16.70 108.30 65 975
SI 07:00:00 TS -16.82 108.21 65 974
SI 09:00:00 TS -17.06 108.06 65 974
SI 10:00:00 TS -17.18 107.98 65 974
SI 12:00:00 TS -17.40 107.80 65 974
SI 13:00:00 TS -17.49 107.66 65 973
SI 15:00:00 TS -17.67 107.34 67 973
SI 16:00:00 TS -17.74 107.17 68 973
SI 18:00:00 TS -17.90 106.80 70 973
SI 19:00:00 TS -17.99 106.63 70 973
SI 21:00:00 TS -18.16 106.27 70 973
SI 22:00:00 TS -18.24 106.09 70 973
SI 1973-03-05 00:00:00 TS -18.40 105.70 70 973
SI 01:00:00 TS -18.48 105.49 68 974
SI 03:00:00 TS -18.62 105.06 65 976
SI 04:00:00 TS -18.69 104.84 63 977
SI 06:00:00 TS -18.80 104.40 60 980
SI 07:00:00 TS -18.84 104.19 59 980
SI 09:00:00 TS -18.91 103.78 57 982
SI 10:00:00 TS -18.94 103.58 56 983
SI 12:00:00 TS -19.00 103.20 55 985
SI 13:00:00 TS -19.03 103.02 54 985
SI 15:00:00 TS -19.09 102.68 52 986
SI 16:00:00 TS -19.13 102.52 51 986
SI 18:00:00 TS -19.20 102.20 50 988
SI 19:00:00 TS -19.24 102.03 49 988
SI 21:00:00 TS -19.34 101.68 47 990
SI 22:00:00 TS -19.39 101.51 46 990
SI 1973-03-06 00:00:00 TS -19.50 101.20 45 992
SI 01:00:00 TS -19.55 101.06 44 992
SI 03:00:00 TS -19.64 100.80 42 993
SI 04:00:00 TS -19.69 100.69 41 993
SI 06:00:00 TS -19.80 100.50 40 995
SI 07:00:00 TS -19.86 100.43 38 995
SI 09:00:00 TS -20.00 100.32 35 997
SI 10:00:00 TS -20.07 100.28 33 998
SI 12:00:00 TS -20.20 100.20 30 1000
SI 13:00:00 TS -20.26 100.13 29 1000
SI 15:00:00 TS -20.38 99.99 27 1001
SI 16:00:00 TS -20.43 99.91 26 1001
SI 18:00:00 TS -20.54 99.75 25 1002
SI 19:00:00 TS -20.59 99.67 24 1002
SI 21:00:00 TS -20.68 99.51 22 1003
SI 22:00:00 TS -20.72 99.44 21 1003
SI 1973-03-07 00:00:00 TS -20.80 99.30 20 1004
SI 01:00:00 TS -20.83 99.25 20 1004
SI 03:00:00 TS -20.89 99.16 20 1004
SI 04:00:00 TS -20.92 99.11 20 1004
SI 06:00:00 TS -21.00 99.00 20 1004

Source Information

Agency Information
USA
TOKYO
CMA
HKO
NEWDELHI
REUNION
BOM
NADI
WELLINGTON
DS824 aus_area.dat:499:LEAH (REGENE
TD9636
TD9635
NEUMANN
MLC

All available IBTrACS Data

SEASON BASIN SUBBASIN ISO_TIME_________ NATURE LAT LON DIST2LAND LANDFALL IFLAG USA SSHS DS824 LAT DS824 LON DS824 STAGE DS824 WIND DS824 PRES STORM SPEED STORM DIR
Year degrees north degrees east km km 1 degrees north degrees east kts mb kts degrees
1973 SI WA 1973-03-01 09:00:00 TS -13.87 132.28 0 0 ______________ -1 24 273
1973 SI WA 12:00:00 TS -13.81 131.04 0 0 ______________ -1 25 273
1973 SI WA 15:00:00 TS -13.76 129.73 10 10 ______________ -1 26 272
1973 SI WA 18:00:00 TS -13.72 128.38 94 11 ______________ -1 26 271
1973 SI WA 21:00:00 TS -13.70 127.05 11 11 ______________ -1 25 270
1973 SI WA 1973-03-02 00:00:00 TS -13.72 125.78 46 46 ______________ -1 24 268
1973 SI WA 03:00:00 TS -13.78 124.62 110 110 ______________ -1 21 265
1973 SI WA 06:00:00 TS -13.90 123.60 189 189 _________O____ -1 -13.90 123.60 TC 20 1004 18 259
1973 SI WA 09:00:00 TS -14.13 122.78 240 240 _________P____ -1 -14.15 122.79 TC 20 1004 16 256
1973 SI WA 12:00:00 TS -14.30 122.00 264 264 _________O____ -1 -14.30 122.00 TC 20 1004 15 264
1973 SI WA 15:00:00 TS -14.29 121.24 306 306 _________P____ -1 -14.29 121.24 TC 20 1004 16 274
1973 SI WA 18:00:00 TS -14.20 120.40 371 371 _________O____ -1 -14.20 120.40 TC 20 1004 18 277
1973 SI WA 21:00:00 TS -14.07 119.42 442 437 _________P____ -1 -14.07 119.42 TC 25 1002 21 275
1973 SI WA 1973-03-03 00:00:00 TS -14.00 118.20 477 477 _________O____ -1 -14.00 118.20 TC 30 1001 25 272
1973 SI WA 01:00:00 TS -14.01 117.71 505 505 _________P____ -1 -14.01 117.71 TC 30 1000 31 267
1973 SI WA 03:00:00 TS -14.09 116.63 561 561 _________P____ -1 -14.09 116.63 TC 30 1000 32 265
1973 SI WA 04:00:00 TS -14.15 116.07 579 579 _________P____ -1 -14.15 116.07 TC 30 999 32 262
1973 SI WA 06:00:00 TS -14.30 115.00 612 612 _________O____ -1 -14.30 115.00 TC 30 999 31 261
1973 SI WA 07:00:00 TS -14.39 114.51 627 627 _________P____ -1 -14.39 114.51 TC 30 998 28 258
1973 SI WA 09:00:00 TS -14.59 113.59 658 658 _________P____ -1 -14.59 113.59 TC 32 997 27 257
1973 SI WA 10:00:00 TS -14.70 113.16 678 678 _________P____ -1 -14.70 113.16 TC 33 997 24 255
1973 SI WA 12:00:00 TS -14.90 112.40 721 721 _________O____ -1 -14.90 112.40 TC 35 996 22 256
1973 SI WA 13:00:00 TS -14.97 112.06 740 739 _________P____ -1 -14.97 112.06 TC 35 995 18 258
1973 SI WA 15:00:00 TS -15.08 111.47 750 750 _________P____ -1 -15.08 111.47 TC 37 995 17 258
1973 SI WA 16:00:00 TS -15.15 111.20 752 752 _________P____ -1 -15.15 111.20 TC 38 995 15 254
1973 SI WA 18:00:00 TS -15.30 110.70 780 780 _________O____ -1 -15.30 110.70 TC 40 995 16 250
1973 SI WA 19:00:00 TS -15.42 110.42 796 796 _________P____ -1 -15.42 110.42 TC 42 993 17 244
1973 SI WA 21:00:00 TS -15.68 109.89 816 812 _________P____ -1 -15.68 109.89 TC 47 990 17 241
1973 SI WA 22:00:00 TS -15.83 109.64 824 815 _________P____ -1 -15.83 109.64 TC 49 988 16 238
1973 SI WA 1973-03-04 00:00:00 TS -16.10 109.20 821 819 _________O____ -1 -16.10 109.20 TC 55 985 14 238
1973 SI WA 01:00:00 TS -16.21 109.01 826 824 _________P____ -1 -16.21 109.01 TC 56 983 12 239
1973 SI WA 03:00:00 TS -16.41 108.67 829 828 _________P____ -1 -16.41 108.67 TC 60 980 11 237
1973 SI WA 04:00:00 TS -16.50 108.54 835 834 _________P____ -1 -16.50 108.54 TC 61 978 9 231
1973 SI WA 06:00:00 TS -16.70 108.30 834 826 _________O____ -1 -16.70 108.30 TC 65 975 9 225
1973 SI WA 07:00:00 TS -16.82 108.21 833 826 _________P____ -1 -16.82 108.21 TC 65 974 9 213
1973 SI WA 09:00:00 TS -17.06 108.06 818 818 _________P____ -1 -17.06 108.06 TC 65 974 8 211
1973 SI WA 10:00:00 TS -17.18 107.98 819 819 _________P____ -1 -17.18 107.98 TC 65 974 8 216
1973 SI WA 12:00:00 TS -17.40 107.80 821 821 _________O____ -1 -17.40 107.80 TC 65 974 9 224
1973 SI WA 13:00:00 TS -17.49 107.66 822 822 _________P____ -1 -17.49 107.66 TC 65 973 10 239
1973 SI WA 15:00:00 TS -17.67 107.34 843 843 _________P____ -1 -17.67 107.34 TC 67 973 11 242
1973 SI WA 16:00:00 TS -17.74 107.17 852 852 _________P____ -1 -17.74 107.17 TC 68 973 11 246
1973 SI WA 18:00:00 TS -17.90 106.80 875 875 _________O____ -1 -17.90 106.80 TC 70 973 11 245
1973 SI WA 19:00:00 TS -17.99 106.63 887 887 _________P____ -1 -17.99 106.63 TC 70 973 11 243
1973 SI WA 21:00:00 TS -18.16 106.27 904 904 _________P____ -1 -18.16 106.27 TC 70 973 11 244
1973 SI WA 22:00:00 TS -18.24 106.09 922 917 _________P____ -1 -18.24 106.09 TC 70 973 12 246
1973 SI WA 1973-03-05 00:00:00 TS -18.40 105.70 947 947 _________O____ -1 -18.40 105.70 TC 70 973 12 247
1973 SI WA 01:00:00 TS -18.48 105.49 959 959 _________P____ -1 -18.48 105.49 TC 68 974 13 250
1973 SI WA 03:00:00 TS -18.62 105.06 990 990 _________P____ -1 -18.62 105.06 TC 65 976 13 251
1973 SI WA 04:00:00 TS -18.69 104.84 1013 1013 _________P____ -1 -18.69 104.84 TC 63 977 13 254
1973 SI WA 06:00:00 TS -18.80 104.40 1046 1046 _________O____ -1 -18.80 104.40 TC 60 980 13 256
1973 SI WA 07:00:00 TS -18.84 104.19 1065 1060 _________P____ -1 -18.84 104.19 TC 59 980 12 259
1973 SI WA 09:00:00 TS -18.91 103.78 1099 1099 _________P____ -1 -18.91 103.78 TC 57 982 12 260
1973 SI WA 10:00:00 TS -18.94 103.58 1118 1118 _________P____ -1 -18.94 103.58 TC 56 983 11 261
1973 SI WA 12:00:00 TS -19.00 103.20 1153 1153 _________O____ -1 -19.00 103.20 TC 55 985 11 261
1973 SI WA 13:00:00 TS -19.03 103.02 1172 1172 _________P____ -1 -19.03 103.02 TC 54 985 10 259
1973 SI WA 15:00:00 TS -19.09 102.68 1197 1197 _________P____ -1 -19.09 102.68 TC 52 986 10 259
1973 SI WA 16:00:00 TS -19.13 102.52 1217 1217 _________P____ -1 -19.13 102.52 TC 51 986 9 257
1973 SI WA 18:00:00 TS -19.20 102.20 1243 1243 _________O____ -1 -19.20 102.20 TC 50 988 10 256
1973 SI WA 19:00:00 TS -19.24 102.03 1262 1259 _________P____ -1 -19.24 102.03 TC 49 988 10 254
1973 SI WA 21:00:00 TS -19.34 101.68 1288 1288 _________P____ -1 -19.34 101.68 TC 47 990 10 253
1973 SI WA 22:00:00 TS -19.39 101.51 1305 1305 _________P____ -1 -19.39 101.51 TC 46 990 10 251
1973 SI WA 1973-03-06 00:00:00 TS -19.50 101.20 1331 1331 _________O____ -1 -19.50 101.20 TC 45 992 9 250
1973 SI WA 01:00:00 TS -19.55 101.06 1341 1341 _________P____ -1 -19.55 101.06 TC 44 992 8 249
1973 SI WA 03:00:00 TS -19.64 100.80 1368 1365 _________P____ -1 -19.64 100.80 TC 42 993 8 247
1973 SI WA 04:00:00 TS -19.69 100.69 1375 1375 _________P____ -1 -19.69 100.69 TC 41 993 6 241
1973 SI WA 06:00:00 TS -19.80 100.50 1392 1392 _________O____ -1 -19.80 100.50 TC 40 995 6 235
1973 SI WA 07:00:00 TS -19.86 100.43 1400 1397 _________P____ -1 -19.86 100.43 TC 38 995 5 220
1973 SI WA 09:00:00 TS -20.00 100.32 1407 1404 _________P____ -1 -20.00 100.32 TC 35 997 5 214
1973 SI WA 10:00:00 TS -20.07 100.28 1404 1404 _________P____ -1 -20.07 100.28 TC 33 998 5 210
1973 SI WA 12:00:00 TS -20.20 100.20 1412 1412 _________O____ -1 -20.20 100.20 TC 30 1000 5 215
1973 SI WA 13:00:00 TS -20.26 100.13 1419 1419 _________P____ -1 -20.26 100.13 TC 29 1000 5 228
1973 SI WA 15:00:00 TS -20.38 99.99 1427 1427 _________P____ -1 -20.38 99.99 TC 27 1001 5 231
1973 SI WA 16:00:00 TS -20.43 99.91 1437 1435 _________P____ -1 -20.43 99.91 TC 26 1001 6 234
1973 SI WA 18:00:00 TS -20.54 99.75 1445 1445 _________P____ -1 -20.54 99.75 TC 25 1002 5 236
1973 SI WA 19:00:00 TS -20.59 99.67 1453 1453 _________P____ -1 -20.59 99.67 TC 24 1002 5 238
1973 SI WA 21:00:00 TS -20.68 99.51 1471 1471 _________P____ -1 -20.68 99.51 TC 22 1003 5 238
1973 SI WA 22:00:00 TS -20.72 99.44 1481 1479 _________P____ -1 -20.72 99.44 TC 21 1003 5 238
1973 SI WA 1973-03-07 00:00:00 TS -20.80 99.30 1490 1490 _________O____ -1 -20.80 99.30 TC 20 1004 4 238
1973 SI WA 01:00:00 TS -20.83 99.25 1490 1490 _________P____ -1 -20.84 99.24 TC 20 1004 3 236
1973 SI WA 03:00:00 TS -20.89 99.16 1498 1498 _________P____ -1 -20.90 99.14 TC 20 1004 3 236
1973 SI WA 04:00:00 TS -20.92 99.11 1508 1506 _________P____ -1 -20.94 99.09 TC 20 1004 4 233
1973 SI WA 06:00:00 TS -21.00 99.00 1516 _________O____ -1 -21.00 99.00 TC 20 1004 4 232